createdAt,value
2022-08-26T00:14:36.928Z,22.06
2022-08-26T00:34:36.857Z,22.00
2022-08-26T00:54:36.886Z,22.00
2022-08-26T01:14:36.807Z,22.06
2022-08-26T01:34:36.847Z,22.00
2022-08-26T01:54:36.761Z,22.00
2022-08-26T02:14:36.790Z,21.81
2022-08-26T02:34:37.006Z,21.93
2022-08-26T02:54:36.749Z,21.93
2022-08-26T03:14:36.676Z,21.87
2022-08-26T03:34:36.699Z,21.93
2022-08-26T03:54:36.626Z,21.87
2022-08-26T04:14:36.654Z,22.00
2022-08-26T04:34:36.577Z,21.87
2022-08-26T04:54:36.612Z,22.00
2022-08-26T05:14:36.529Z,21.81
2022-08-26T05:34:36.558Z,21.93
2022-08-26T05:54:36.488Z,21.81
2022-08-26T06:14:36.515Z,21.68
2022-08-26T06:34:36.438Z,21.93
2022-08-26T06:54:36.459Z,21.68
2022-08-26T07:14:36.386Z,21.93
2022-08-26T07:34:36.412Z,21.93
2022-08-26T07:54:36.331Z,22.00
2022-08-26T08:14:36.359Z,21.93
2022-08-26T08:34:36.284Z,22.00
2022-08-26T08:54:36.205Z,21.93
2022-08-26T09:14:36.234Z,22.12
2022-08-26T09:34:36.171Z,22.00
2022-08-26T09:54:36.191Z,22.12
2022-08-26T10:14:36.120Z,22.18
2022-08-26T10:34:36.148Z,22.25
2022-08-26T10:54:36.078Z,22.31
2022-08-26T11:14:36.011Z,22.25
2022-08-26T11:34:36.050Z,22.31
2022-08-26T11:54:35.969Z,22.31
2022-08-26T12:14:35.902Z,22.37
2022-08-26T12:34:35.934Z,22.43
2022-08-26T12:54:35.866Z,22.50
2022-08-26T13:14:35.837Z,22.56
2022-08-26T13:34:35.866Z,22.56
2022-08-26T13:54:35.803Z,22.62
2022-08-26T14:14:35.741Z,22.81
2022-08-26T14:34:35.781Z,22.87
2022-08-26T14:54:35.728Z,23.00
2022-08-26T15:14:35.662Z,23.00
2022-08-26T15:34:35.606Z,23.06
2022-08-26T15:54:35.653Z,23.18
2022-08-26T16:14:35.604Z,23.12
2022-08-26T16:34:35.551Z,22.75
2022-08-26T16:54:35.506Z,22.68
2022-08-26T17:14:35.460Z,22.81
2022-08-26T17:34:35.504Z,22.75
2022-08-26T17:54:35.443Z,22.75
2022-08-26T18:14:35.391Z,22.81
2022-08-26T18:34:35.334Z,22.62
2022-08-26T18:54:35.384Z,22.81
2022-08-26T19:14:35.316Z,22.81
2022-08-26T19:34:35.259Z,22.81
2022-08-26T19:54:35.294Z,22.68
2022-08-26T20:14:35.235Z,22.81
2022-08-26T20:34:35.175Z,22.93
2022-08-26T20:54:35.223Z,22.75
2022-08-26T21:14:35.143Z,22.62
2022-08-26T21:34:35.079Z,22.56
2022-08-26T21:54:35.112Z,22.56
2022-08-26T22:14:35.055Z,22.75
2022-08-26T22:34:35.085Z,22.56
2022-08-26T22:54:35.027Z,22.68
2022-08-26T23:14:34.952Z,22.43
2022-08-26T23:34:35.009Z,22.50
2022-08-26T23:54:34.921Z,22.50
